Time;durP1;ratioP1;P1;durP2;ratioP2;P2;SDS_P1;SDS_P2;PMS_P1;PMS_P2;Temp;Humidity;BMP_temperature;BMP_pressure;BME280_temperature;BME280_humidity;BME280_pressure;Samples;Min_cycle;Max_cycle;Signal;HPM_P1;HPM_P2
2023/04/22 00:01:18;;;;;;;15.35;10.35;;;11.40;99.90;;;;;;4997670;28;20124;-75
2023/04/22 00:03:44;;;;;;;15.30;10.93;;;11.40;99.90;;;;;;5014614;28;20045;-75
2023/04/22 00:06:10;;;;;;;14.10;11.00;;;11.40;99.90;;;;;;4980518;28;20368;-75
2023/04/22 00:08:36;;;;;;;15.10;11.02;;;11.30;99.90;;;;;;5000225;28;20065;-75
2023/04/22 00:11:02;;;;;;;14.95;10.60;;;11.30;99.90;;;;;;5008439;28;20133;-77
2023/04/22 00:13:31;;;;;;;14.30;10.27;;;11.20;99.90;;;;;;4999349;28;20507;-75
2023/04/22 00:15:57;;;;;;;15.20;11.25;;;11.30;99.90;;;;;;5016022;28;20050;-75
2023/04/22 00:18:22;;;;;;;15.23;11.10;;;11.30;99.90;;;;;;4996825;28;20104;-77
2023/04/22 00:20:48;;;;;;;15.85;11.25;;;11.20;99.90;;;;;;5014264;28;20128;-75
2023/04/22 00:23:13;;;;;;;15.27;11.48;;;11.20;99.90;;;;;;4997644;28;20038;-75
2023/04/22 00:25:39;;;;;;;16.08;11.90;;;11.20;99.90;;;;;;5014017;28;20096;-75
2023/04/22 00:28:05;;;;;;;15.32;11.80;;;11.20;99.90;;;;;;5019261;28;20261;-75
2023/04/22 00:30:31;;;;;;;16.10;11.57;;;11.10;99.90;;;;;;5016343;28;20029;-75
2023/04/22 00:32:56;;;;;;;17.35;11.88;;;11.10;99.90;;;;;;5021679;28;20506;-76
2023/04/22 00:35:22;;;;;;;14.82;11.30;;;11.10;99.90;;;;;;5013608;28;20041;-75
2023/04/22 00:37:48;;;;;;;16.27;11.82;;;11.00;99.90;;;;;;4996595;28;20069;-75
2023/04/22 00:40:13;;;;;;;15.00;11.35;;;11.00;99.90;;;;;;4994953;28;20037;-75
2023/04/22 00:42:42;;;;;;;16.80;12.07;;;10.90;99.90;;;;;;4996199;28;20034;-75
2023/04/22 00:45:14;;;;;;;15.35;11.82;;;10.90;99.90;;;;;;4979995;28;20041;-75
2023/04/22 00:47:40;;;;;;;14.10;11.38;;;10.90;99.90;;;;;;5013779;28;20517;-75
2023/04/22 00:50:07;;;;;;;16.45;11.13;;;10.80;99.90;;;;;;5014244;28;20091;-75
2023/04/22 00:52:32;;;;;;;17.92;11.48;;;10.80;99.90;;;;;;5016274;28;20113;-75
2023/04/22 00:54:58;;;;;;;15.23;11.43;;;10.80;99.90;;;;;;4979781;28;20050;-75
2023/04/22 00:57:25;;;;;;;17.70;11.15;;;10.80;99.90;;;;;;5017762;28;20068;-76
2023/04/22 00:59:52;;;;;;;13.75;10.50;;;10.80;99.90;;;;;;4997214;28;20049;-75
2023/04/22 01:02:18;;;;;;;13.68;10.88;;;10.70;99.90;;;;;;4996023;28;20048;-75
2023/04/22 01:04:44;;;;;;;15.15;10.85;;;10.70;99.90;;;;;;4995849;28;20042;-76
2023/04/22 01:07:10;;;;;;;16.48;11.68;;;10.60;99.90;;;;;;4996365;28;20445;-76
2023/04/22 01:09:35;;;;;;;15.18;11.35;;;10.60;99.90;;;;;;5011095;28;20038;-75
2023/04/22 01:12:01;;;;;;;14.68;10.60;;;10.60;99.90;;;;;;5013166;28;20497;-75
2023/04/22 01:14:27;;;;;;;12.63;10.07;;;10.60;99.90;;;;;;4994986;28;20042;-75
2023/04/22 01:16:53;;;;;;;12.05;9.73;;;10.50;99.90;;;;;;4972467;28;20398;-75
2023/04/22 01:19:19;;;;;;;12.80;10.07;;;10.60;99.90;;;;;;4995136;28;20042;-76
2023/04/22 01:21:47;;;;;;;13.88;9.85;;;10.50;99.90;;;;;;5013260;28;20118;-75
2023/04/22 01:24:13;;;;;;;14.38;10.73;;;10.50;99.90;;;;;;4995314;28;20038;-76
2023/04/22 01:26:39;;;;;;;15.25;10.20;;;10.50;99.90;;;;;;4995216;28;20512;-75
2023/04/22 01:29:04;;;;;;;13.60;11.13;;;10.50;99.90;;;;;;4995533;28;20440;-75
2023/04/22 01:31:30;;;;;;;15.68;10.40;;;10.40;99.90;;;;;;5013345;28;20046;-76
2023/04/22 01:33:57;;;;;;;13.70;10.00;;;10.40;99.90;;;;;;5012767;28;20238;-75
2023/04/22 01:36:23;;;;;;;14.27;9.57;;;10.40;99.90;;;;;;5012496;28;20077;-75
2023/04/22 01:38:49;;;;;;;10.98;9.35;;;11.10;99.90;;;;;;5011760;28;20070;-75
2023/04/22 01:41:15;;;;;;;10.88;8.93;;;10.30;99.90;;;;;;5012329;28;20041;-75
2023/04/22 01:43:41;;;;;;;13.13;9.30;;;10.30;99.90;;;;;;4989226;28;20034;-76
2023/04/22 01:46:07;;;;;;;13.50;9.07;;;10.30;99.90;;;;;;4995089;28;20266;-76
2023/04/22 01:48:34;;;;;;;10.35;8.68;;;10.30;99.90;;;;;;5012246;28;20046;-75
2023/04/22 01:51:00;;;;;;;11.00;8.88;;;10.20;99.90;;;;;;4995114;28;20125;-76
2023/04/22 01:53:29;;;;;;;10.38;8.15;;;10.10;99.90;;;;;;4979089;28;20096;-76
2023/04/22 01:55:54;;;;;;;11.55;7.85;;;10.10;99.90;;;;;;5000266;28;20053;-75
2023/04/22 01:58:20;;;;;;;11.88;9.23;;;10.10;99.90;;;;;;5015982;28;20054;-75
2023/04/22 02:00:46;;;;;;;10.40;8.38;;;10.00;99.90;;;;;;4994733;28;20046;-75
2023/04/22 02:03:12;;;;;;;10.52;8.02;;;10.00;99.90;;;;;;4994817;28;20037;-76
2023/04/22 02:05:38;;;;;;;10.75;8.52;;;10.00;99.90;;;;;;5011904;28;20042;-75
2023/04/22 02:08:03;;;;;;;9.32;7.03;;;10.00;99.90;;;;;;4994747;28;20052;-75
2023/04/22 02:10:29;;;;;;;8.60;6.82;;;10.00;99.90;;;;;;4987730;28;20049;-76
2023/04/22 02:12:55;;;;;;;9.95;7.75;;;9.90;99.90;;;;;;4983869;28;20112;-75
2023/04/22 02:15:21;;;;;;;10.43;7.90;;;9.90;99.90;;;;;;5004842;28;20038;-76
2023/04/22 02:17:48;;;;;;;10.77;8.45;;;9.80;99.90;;;;;;5010711;28;20459;-76
2023/04/22 02:20:14;;;;;;;11.45;8.05;;;9.80;99.90;;;;;;5011982;28;20037;-76
2023/04/22 02:22:41;;;;;;;9.80;8.10;;;9.80;99.90;;;;;;5011959;28;20124;-75
2023/04/22 02:25:07;;;;;;;10.60;8.40;;;9.80;99.90;;;;;;5010795;28;20046;-75
2023/04/22 02:27:33;;;;;;;10.82;8.18;;;9.80;99.90;;;;;;4994476;28;20040;-75
2023/04/22 02:29:58;;;;;;;10.63;8.48;;;9.70;99.90;;;;;;4972729;28;20490;-76
2023/04/22 02:32:24;;;;;;;11.15;7.78;;;9.70;99.90;;;;;;4989437;28;20035;-76
2023/04/22 02:34:50;;;;;;;11.05;8.57;;;9.70;99.90;;;;;;4981799;28;20486;-75
2023/04/22 02:37:16;;;;;;;10.25;8.05;;;9.60;99.90;;;;;;4989707;28;20049;-76
2023/04/22 02:39:41;;;;;;;11.50;7.82;;;9.60;99.90;;;;;;5011251;28;20038;-76
2023/04/22 02:42:07;;;;;;;9.32;7.55;;;9.60;99.90;;;;;;5009326;28;20045;-76
2023/04/22 02:44:32;;;;;;;8.32;6.95;;;9.60;99.90;;;;;;4986898;28;20046;-75
2023/04/22 02:46:58;;;;;;;8.07;6.57;;;9.60;99.90;;;;;;4991090;28;20368;-76
2023/04/22 02:49:23;;;;;;;9.50;6.93;;;9.50;99.90;;;;;;5003876;28;20042;-76
2023/04/22 02:51:49;;;;;;;9.13;7.45;;;9.50;99.90;;;;;;5010579;28;20045;-75
2023/04/22 02:54:15;;;;;;;9.20;7.25;;;9.50;99.90;;;;;;5008277;28;20522;-76
2023/04/22 02:56:41;;;;;;;10.02;7.65;;;9.50;99.90;;;;;;5009300;28;20044;-75
2023/04/22 02:59:06;;;;;;;9.88;7.97;;;9.40;99.90;;;;;;5010259;28;20096;-75
2023/04/22 03:01:32;;;;;;;9.55;7.47;;;9.40;99.90;;;;;;4990825;28;20048;-76
2023/04/22 03:03:57;;;;;;;10.32;7.85;;;9.40;99.90;;;;;;5010655;28;20034;-75
2023/04/22 03:06:23;;;;;;;10.05;8.00;;;9.40;99.90;;;;;;4988966;28;20398;-75
2023/04/22 03:08:48;;;;;;;11.65;8.45;;;9.30;99.90;;;;;;5010212;28;20465;-75
2023/04/22 03:11:14;;;;;;;10.00;7.93;;;9.30;99.90;;;;;;4993366;28;20046;-75
2023/04/22 03:13:40;;;;;;;10.20;7.93;;;9.30;99.90;;;;;;5011261;28;20149;-75
2023/04/22 03:16:06;;;;;;;9.50;7.50;;;9.30;99.90;;;;;;5012234;28;20045;-75
2023/04/22 03:18:31;;;;;;;7.75;6.38;;;9.30;99.90;;;;;;5011120;28;20528;-75
2023/04/22 03:20:57;;;;;;;8.90;6.95;;;9.20;99.90;;;;;;5012843;28;20037;-75
2023/04/22 03:23:22;;;;;;;9.70;7.03;;;9.60;99.90;;;;;;4997432;28;20046;-75
2023/04/22 03:25:48;;;;;;;8.93;7.05;;;9.20;99.90;;;;;;4990717;28;20047;-76
2023/04/22 03:28:14;;;;;;;9.73;7.55;;;9.20;99.90;;;;;;5016502;28;20157;-75
2023/04/22 03:30:39;;;;;;;10.25;7.53;;;9.20;99.90;;;;;;4993637;28;20050;-75
2023/04/22 03:33:05;;;;;;;11.30;7.53;;;9.20;99.90;;;;;;5010288;28;20088;-76
2023/04/22 03:35:30;;;;;;;9.07;7.72;;;9.20;99.90;;;;;;5010746;28;20049;-75
2023/04/22 03:37:56;;;;;;;9.45;7.72;;;9.20;99.90;;;;;;4998200;28;20136;-75
2023/04/22 03:40:21;;;;;;;9.88;7.50;;;9.20;99.90;;;;;;5016670;28;20058;-75
2023/04/22 03:42:47;;;;;;;11.23;8.15;;;9.20;99.90;;;;;;5013918;28;20049;-75
2023/04/22 03:45:12;;;;;;;10.90;7.88;;;9.10;99.90;;;;;;5014626;28;20041;-75
2023/04/22 03:47:38;;;;;;;10.15;7.95;;;9.10;99.90;;;;;;5014780;28;20034;-76
2023/04/22 03:50:04;;;;;;;9.65;7.70;;;9.10;99.90;;;;;;5012245;28;20112;-76
2023/04/22 03:52:30;;;;;;;9.25;7.50;;;9.10;99.90;;;;;;5014479;28;20498;-75
2023/04/22 03:54:55;;;;;;;10.45;8.35;;;9.30;99.90;;;;;;5020735;28;20034;-75
2023/04/22 03:57:21;;;;;;;10.93;8.60;;;9.20;99.90;;;;;;5014479;28;20057;-76
2023/04/22 03:59:47;;;;;;;12.52;9.40;;;9.10;99.90;;;;;;5020727;28;20518;-76
2023/04/22 04:02:12;;;;;;;13.50;9.90;;;9.00;99.90;;;;;;4995806;28;20482;-76
2023/04/22 04:04:38;;;;;;;13.38;9.73;;;9.00;99.90;;;;;;4997330;28;20460;-76
2023/04/22 04:07:03;;;;;;;13.05;9.77;;;9.00;99.90;;;;;;4995257;28;20038;-76
2023/04/22 04:09:29;;;;;;;11.93;9.70;;;9.00;99.90;;;;;;5015129;28;20061;-76
2023/04/22 04:11:55;;;;;;;39.22;10.88;;;9.00;99.90;;;;;;4976162;28;20394;-75
2023/04/22 04:14:21;;;;;;;12.38;8.77;;;8.90;99.90;;;;;;5009312;28;20050;-75
2023/04/22 04:16:46;;;;;;;12.68;9.02;;;8.90;99.90;;;;;;4991859;28;20588;-77
2023/04/22 04:19:12;;;;;;;12.43;9.65;;;8.90;99.90;;;;;;5006439;28;20042;-75
2023/04/22 04:21:38;;;;;;;13.63;9.13;;;8.80;99.90;;;;;;4972489;28;20046;-75
2023/04/22 04:24:05;;;;;;;11.90;9.38;;;8.80;99.90;;;;;;5010941;28;20128;-75
2023/04/22 04:26:32;;;;;;;12.98;10.00;;;8.80;99.90;;;;;;4985897;28;20129;-76
2023/04/22 04:29:00;;;;;;;12.80;10.00;;;8.10;99.90;;;;;;5003383;28;20064;-75
2023/04/22 04:31:26;;;;;;;12.93;10.20;;;8.90;99.90;;;;;;4993863;28;20066;-74
2023/04/22 04:33:52;;;;;;;14.02;10.13;;;8.90;99.90;;;;;;5008395;28;20049;-75
2023/04/22 04:36:18;;;;;;;10.88;9.23;;;8.90;99.90;;;;;;5000198;28;20088;-75
2023/04/22 04:38:44;;;;;;;13.02;9.35;;;8.90;99.90;;;;;;5003419;28;20080;-75
2023/04/22 04:41:09;;;;;;;13.20;9.13;;;9.00;99.90;;;;;;5002916;28;20069;-76
2023/04/22 04:43:35;;;;;;;11.95;9.30;;;9.00;99.90;;;;;;5002162;28;20038;-75
2023/04/22 04:46:01;;;;;;;12.48;9.05;;;9.00;99.90;;;;;;5003548;28;20512;-75
2023/04/22 04:48:26;;;;;;;12.40;9.40;;;9.00;99.90;;;;;;5005106;28;20046;-75
2023/04/22 04:50:53;;;;;;;11.98;9.88;;;9.00;99.90;;;;;;4987865;28;20069;-75
2023/04/22 04:53:21;;;;;;;11.25;9.15;;;8.90;99.90;;;;;;4985678;28;20143;-75
2023/04/22 04:55:47;;;;;;;11.40;9.55;;;9.00;99.90;;;;;;4985386;28;20149;-75
2023/04/22 04:58:13;;;;;;;11.98;9.60;;;9.00;99.90;;;;;;4984168;28;20118;-76
2023/04/22 05:00:39;;;;;;;13.05;9.85;;;9.00;99.90;;;;;;4998905;28;20043;-74
2023/04/22 05:03:04;;;;;;;13.32;10.18;;;8.90;99.90;;;;;;5004848;28;20038;-75
2023/04/22 05:05:30;;;;;;;16.67;10.15;;;9.00;99.90;;;;;;4986977;28;20046;-75
2023/04/22 05:07:56;;;;;;;12.85;9.82;;;9.00;99.90;;;;;;4991296;28;20121;-75
2023/04/22 05:10:21;;;;;;;14.27;10.48;;;9.00;99.90;;;;;;5006346;28;20188;-75
2023/04/22 05:12:47;;;;;;;15.45;10.32;;;9.20;99.90;;;;;;4993598;28;20041;-75
2023/04/22 05:15:14;;;;;;;13.15;10.32;;;9.00;99.90;;;;;;4991921;28;20034;-76
2023/04/22 05:17:39;;;;;;;14.27;10.68;;;9.00;99.90;;;;;;4988854;28;20046;-75
2023/04/22 05:20:05;;;;;;;15.95;11.15;;;9.10;99.90;;;;;;4988308;28;20045;-76
2023/04/22 05:22:31;;;;;;;14.45;11.07;;;9.10;99.90;;;;;;5003870;28;20038;-75
2023/04/22 05:24:56;;;;;;;15.32;11.68;;;9.10;99.90;;;;;;5002610;28;20034;-75
2023/04/22 05:27:22;;;;;;;15.20;12.50;;;9.20;99.90;;;;;;5004907;28;20045;-75
2023/04/22 05:29:47;;;;;;;17.45;13.07;;;9.20;99.90;;;;;;5008269;28;20486;-76
2023/04/22 05:32:13;;;;;;;19.98;13.13;;;9.20;99.90;;;;;;5012563;28;20469;-75
2023/04/22 05:34:39;;;;;;;17.92;13.85;;;9.30;99.90;;;;;;4988897;28;20046;-76
2023/04/22 05:37:05;;;;;;;19.80;15.05;;;9.30;99.90;;;;;;5012593;28;20316;-76
2023/04/22 05:39:31;;;;;;;19.17;14.98;;;9.30;99.90;;;;;;4989454;28;20133;-76
2023/04/22 05:41:56;;;;;;;21.48;16.10;;;9.40;99.90;;;;;;4995314;28;20459;-75
2023/04/22 05:44:22;;;;;;;20.63;16.23;;;9.40;99.90;;;;;;5012502;28;20046;-76
2023/04/22 05:46:47;;;;;;;18.67;15.60;;;9.50;99.90;;;;;;5007359;28;20049;-75
2023/04/22 05:49:13;;;;;;;18.40;15.07;;;9.50;99.90;;;;;;4989351;28;20564;-75
2023/04/22 05:51:39;;;;;;;21.92;16.60;;;9.60;99.90;;;;;;5009689;28;20468;-75
2023/04/22 05:54:04;;;;;;;20.98;16.30;;;9.60;99.90;;;;;;4994762;28;20049;-75
2023/04/22 05:56:30;;;;;;;20.27;16.13;;;9.70;99.90;;;;;;5012118;28;20046;-76
2023/04/22 05:58:56;;;;;;;21.58;16.20;;;9.70;99.90;;;;;;5009621;28;20510;-76
2023/04/22 06:01:21;;;;;;;21.65;16.45;;;9.80;99.90;;;;;;4990178;28;20406;-76
2023/04/22 06:03:47;;;;;;;20.52;16.40;;;9.90;99.90;;;;;;5011808;28;20555;-77
2023/04/22 06:06:12;;;;;;;21.25;15.93;;;9.90;99.90;;;;;;4994191;28;20130;-75
2023/04/22 06:08:38;;;;;;;20.65;15.82;;;10.00;99.90;;;;;;4991995;28;20063;-76
2023/04/22 06:11:04;;;;;;;21.15;15.48;;;10.00;99.90;;;;;;4974347;28;20065;-76
2023/04/22 06:13:29;;;;;;;19.95;16.02;;;10.00;99.90;;;;;;4991150;28;20521;-75
2023/04/22 06:15:55;;;;;;;20.58;15.90;;;10.10;99.90;;;;;;4995234;28;20513;-73
2023/04/22 06:18:20;;;;;;;20.38;16.17;;;10.20;99.90;;;;;;5000358;28;20048;-74
2023/04/22 06:20:46;;;;;;;20.48;15.38;;;10.20;99.90;;;;;;5012287;28;20038;-76
2023/04/22 06:23:12;;;;;;;20.13;15.93;;;10.30;99.90;;;;;;4972219;28;20497;-76
2023/04/22 06:25:37;;;;;;;21.73;16.33;;;10.30;99.90;;;;;;5012580;28;20034;-76
2023/04/22 06:28:03;;;;;;;20.02;15.98;;;10.40;99.90;;;;;;4987317;28;20041;-77
2023/04/22 06:30:28;;;;;;;19.85;15.52;;;10.40;99.90;;;;;;4994180;28;20524;-77
2023/04/22 06:32:55;;;;;;;20.95;15.88;;;10.50;99.90;;;;;;5006896;28;20517;-78
2023/04/22 06:35:21;;;;;;;21.30;15.90;;;10.60;99.90;;;;;;4990533;28;20291;-78
2023/04/22 06:37:47;;;;;;;18.83;15.50;;;10.60;99.90;;;;;;5006098;28;20038;-78
2023/04/22 06:40:14;;;;;;;20.75;15.68;;;10.70;99.90;;;;;;4978975;28;20061;-78
2023/04/22 06:42:40;;;;;;;18.33;14.50;;;10.70;99.90;;;;;;5012724;28;20041;-78
2023/04/22 06:45:08;;;;;;;22.98;16.02;;;10.80;99.90;;;;;;4993466;28;20065;-78
2023/04/22 06:47:33;;;;;;;19.90;14.77;;;10.90;99.90;;;;;;5012367;28;20037;-77
2023/04/22 06:50:00;;;;;;;17.98;14.30;;;10.90;99.90;;;;;;5011662;28;20034;-78
2023/04/22 06:52:25;;;;;;;21.00;15.88;;;11.40;99.90;;;;;;5012270;28;20167;-78
2023/04/22 06:54:51;;;;;;;18.05;14.90;;;10.90;99.90;;;;;;4993342;28;20105;-79
2023/04/22 06:57:16;;;;;;;21.40;15.55;;;11.80;99.90;;;;;;5007865;22;20042;-66
2023/04/22 06:59:42;;;;;;;19.23;14.45;;;11.10;99.90;;;;;;5007886;28;20044;-64
2023/04/22 07:02:08;;;;;;;18.15;14.98;;;11.20;99.90;;;;;;5029594;28;20084;-63
2023/04/22 07:04:33;;;;;;;21.15;14.57;;;11.20;99.90;;;;;;4993241;28;20030;-63
2023/04/22 07:06:59;;;;;;;19.35;14.80;;;11.30;99.90;;;;;;5003757;28;20042;-63
2023/04/22 07:09:25;;;;;;;20.05;15.07;;;11.30;99.90;;;;;;5008808;28;20038;-64
2023/04/22 07:11:51;;;;;;;21.48;14.77;;;11.30;99.90;;;;;;4984788;28;20485;-64
2023/04/22 07:14:16;;;;;;;21.15;14.98;;;11.30;99.90;;;;;;4989182;28;20073;-63
2023/04/22 07:16:42;;;;;;;18.52;14.55;;;11.40;99.90;;;;;;5008735;28;20049;-63
2023/04/22 07:19:07;;;;;;;19.80;15.48;;;11.40;99.90;;;;;;4988827;28;20084;-63
2023/04/22 07:21:33;;;;;;;22.52;15.90;;;11.50;99.90;;;;;;5010279;28;20038;-65
2023/04/22 07:23:58;;;;;;;18.88;14.55;;;11.50;99.90;;;;;;5010227;28;20042;-63
2023/04/22 07:26:24;;;;;;;19.23;14.85;;;11.50;99.90;;;;;;5001018;28;20045;-63
2023/04/22 07:28:50;;;;;;;20.52;15.63;;;11.60;99.90;;;;;;5009242;28;20507;-63
2023/04/22 07:31:16;;;;;;;21.77;15.50;;;11.60;99.90;;;;;;5008084;28;20042;-63
2023/04/22 07:33:41;;;;;;;23.05;15.90;;;11.70;99.90;;;;;;5009718;28;20045;-65
2023/04/22 07:36:07;;;;;;;19.17;15.68;;;11.70;99.90;;;;;;4989289;28;20046;-63
2023/04/22 07:38:33;;;;;;;21.13;14.93;;;11.70;99.90;;;;;;4989046;28;20037;-63
2023/04/22 07:40:58;;;;;;;23.58;16.17;;;11.80;99.90;;;;;;4990493;28;20084;-63
2023/04/22 07:43:24;;;;;;;25.17;16.50;;;11.90;99.90;;;;;;5009527;28;20490;-64
2023/04/22 07:45:50;;;;;;;21.67;16.55;;;11.90;99.90;;;;;;5002230;28;20073;-63
2023/04/22 07:48:15;;;;;;;21.23;16.65;;;12.00;99.90;;;;;;4985442;28;20038;-63
2023/04/22 07:50:42;;;;;;;19.58;15.93;;;12.10;99.90;;;;;;5010833;28;20399;-63
2023/04/22 07:53:09;;;;;;;21.70;15.75;;;12.20;99.90;;;;;;5012637;28;20088;-64
2023/04/22 07:55:35;;;;;;;20.73;16.15;;;12.20;99.90;;;;;;5000475;28;20042;-64
2023/04/22 07:58:05;;;;;;;22.38;16.42;;;12.30;99.90;;;;;;4988055;28;20038;-64
2023/04/22 08:00:32;;;;;;;23.17;16.80;;;12.50;99.90;;;;;;5009282;28;20042;-64
2023/04/22 08:02:58;;;;;;;19.58;16.15;;;12.50;99.90;;;;;;4993865;28;20049;-63
2023/04/22 08:05:23;;;;;;;19.50;15.60;;;12.70;99.90;;;;;;5009520;28;20034;-63
2023/04/22 08:07:49;;;;;;;19.10;15.18;;;12.70;99.90;;;;;;4992038;28;20124;-64
2023/04/22 08:10:14;;;;;;;18.73;15.73;;;12.80;99.90;;;;;;5009469;28;20451;-65
2023/04/22 08:12:40;;;;;;;18.77;14.90;;;12.90;99.90;;;;;;4997908;28;20050;-63
2023/04/22 08:15:06;;;;;;;19.23;13.88;;;13.00;99.90;;;;;;4988985;28;20076;-63
2023/04/22 08:17:32;;;;;;;17.85;14.45;;;13.00;99.90;;;;;;4990507;28;20096;-63
2023/04/22 08:19:57;;;;;;;21.67;15.57;;;13.10;99.90;;;;;;5009782;28;20507;-63
2023/04/22 08:22:24;;;;;;;18.25;15.02;;;13.20;99.90;;;;;;5010813;28;20038;-64
2023/04/22 08:24:50;;;;;;;18.30;13.82;;;13.30;99.90;;;;;;5013644;28;20045;-64
2023/04/22 08:27:15;;;;;;;17.63;13.88;;;13.40;99.90;;;;;;5012836;28;20041;-63
2023/04/22 08:29:41;;;;;;;20.35;15.18;;;13.50;99.90;;;;;;4994938;28;20046;-63
2023/04/22 08:32:06;;;;;;;19.35;14.10;;;13.50;99.90;;;;;;5005578;28;20315;-64
2023/04/22 08:34:32;;;;;;;16.48;13.20;;;13.60;99.90;;;;;;5009675;28;20451;-64
2023/04/22 08:36:58;;;;;;;16.95;13.48;;;13.70;99.90;;;;;;5012021;28;20042;-64
2023/04/22 08:39:23;;;;;;;16.83;13.05;;;13.70;99.90;;;;;;5012882;28;20033;-64
2023/04/22 08:41:50;;;;;;;16.20;12.88;;;13.80;99.90;;;;;;4994925;28;20046;-65
2023/04/22 08:44:16;;;;;;;15.90;11.95;;;13.90;99.90;;;;;;5012590;28;20046;-63
2023/04/22 08:46:45;;;;;;;14.60;12.30;;;14.00;99.90;;;;;;5012166;28;20053;-64
2023/04/22 08:49:15;;;;;;;16.00;12.50;;;14.20;99.90;;;;;;5009365;28;20049;-65
2023/04/22 08:51:42;;;;;;;15.95;11.98;;;14.40;99.90;;;;;;4994977;28;20050;-64
2023/04/22 08:54:09;;;;;;;15.05;11.52;;;14.70;99.90;;;;;;4995048;28;20091;-64
2023/04/22 08:56:39;;;;;;;12.48;10.82;;;14.90;99.90;;;;;;5012638;28;20112;-64
2023/04/22 08:59:04;;;;;;;15.98;11.05;;;15.00;99.90;;;;;;4996072;28;20077;-64
2023/04/22 09:01:31;;;;;;;12.70;9.70;;;15.10;99.90;;;;;;4995525;28;20065;-63
2023/04/22 09:04:01;;;;;;;15.27;11.07;;;15.20;99.90;;;;;;4996386;28;20038;-64
2023/04/22 09:06:27;;;;;;;13.43;11.07;;;15.40;99.90;;;;;;4994844;28;20037;-64
2023/04/22 09:08:53;;;;;;;14.95;10.15;;;15.40;99.90;;;;;;4995184;28;20375;-65
2023/04/22 09:11:19;;;;;;;11.60;10.10;;;15.60;99.90;;;;;;5012906;28;20100;-65
2023/04/22 09:13:46;;;;;;;11.75;10.02;;;15.80;99.90;;;;;;5013146;28;20498;-64
2023/04/22 09:16:11;;;;;;;11.02;9.80;;;15.90;99.90;;;;;;5017707;28;20121;-64
2023/04/22 09:18:46;;;;;;;10.18;8.68;;;16.00;99.90;;;;;;4996341;28;20180;-65
2023/04/22 09:21:12;;;;;;;12.20;9.73;;;16.20;99.90;;;;;;5012885;28;20046;-65
2023/04/22 09:23:50;;;;;;;12.38;10.18;;;16.30;99.90;;;;;;5004816;28;20046;-65
2023/04/22 09:26:19;;;;;;;13.88;9.90;;;16.30;99.90;;;;;;5003467;28;20052;-65
2023/04/22 09:28:53;;;;;;;12.80;9.27;;;16.20;99.90;;;;;;5012394;28;20060;-63
2023/04/22 09:31:20;;;;;;;13.27;10.40;;;16.20;99.90;;;;;;5014120;28;20038;-65
2023/04/22 09:33:59;;;;;;;11.35;9.82;;;16.20;99.90;;;;;;4996169;28;20395;-65
2023/04/22 09:36:29;;;;;;;13.38;9.65;;;16.20;99.90;;;;;;5007794;28;20537;-64
2023/04/22 09:39:08;;;;;;;12.25;9.70;;;16.20;99.90;;;;;;5015440;28;20040;-64
2023/04/22 09:41:38;;;;;;;12.30;9.73;;;16.30;99.90;;;;;;4981611;28;20069;-64
2023/04/22 09:44:26;;;;;;;11.65;9.95;;;16.40;99.90;;;;;;5015741;28;20034;-64
2023/04/22 09:46:53;;;;;;;12.55;9.48;;;16.50;99.90;;;;;;4991419;28;20050;-63
2023/04/22 09:49:20;;;;;;;10.95;9.23;;;16.60;99.90;;;;;;5016399;28;20053;-65
2023/04/22 09:51:45;;;;;;;12.27;9.00;;;16.70;99.90;;;;;;5013737;28;20427;-63
2023/04/22 09:54:11;;;;;;;12.13;9.35;;;16.70;99.90;;;;;;5015289;28;20053;-64
2023/04/22 09:56:42;;;;;;;11.75;9.57;;;16.70;99.90;;;;;;5013464;28;20044;-64
2023/04/22 09:59:08;;;;;;;10.50;8.85;;;16.80;99.90;;;;;;5013819;28;20042;-64
2023/04/22 10:01:41;;;;;;;11.93;8.45;;;16.90;99.90;;;;;;5016796;28;20041;-65
2023/04/22 10:04:08;;;;;;;9.90;8.18;;;17.10;99.90;;;;;;4991169;28;20049;-64
2023/04/22 10:06:34;;;;;;;10.93;7.95;;;17.20;99.90;;;;;;5012327;28;20077;-64
2023/04/22 10:09:01;;;;;;;10.98;7.80;;;17.40;99.90;;;;;;5011055;28;20030;-64
2023/04/22 10:11:27;;;;;;;9.10;7.82;;;17.70;99.90;;;;;;5012978;28;20087;-64
2023/04/22 10:13:52;;;;;;;10.30;7.97;;;17.90;99.90;;;;;;5012431;28;20132;-64
2023/04/22 10:16:21;;;;;;;9.35;7.65;;;18.10;99.90;;;;;;5007672;28;20049;-63
2023/04/22 10:18:47;;;;;;;10.95;8.02;;;18.30;99.90;;;;;;4995448;28;20096;-64
2023/04/22 10:21:13;;;;;;;9.02;7.78;;;18.40;99.90;;;;;;5014235;28;20052;-64
2023/04/22 10:23:45;;;;;;;9.50;7.78;;;18.50;99.90;;;;;;5014414;28;20045;-64
2023/04/22 10:26:11;;;;;;;11.02;8.30;;;18.50;99.90;;;;;;4999562;28;20065;-64
2023/04/22 10:28:43;;;;;;;12.30;8.75;;;18.60;99.90;;;;;;4998669;28;20123;-65
2023/04/22 10:31:21;;;;;;;9.98;8.30;;;18.70;99.90;;;;;;4996125;28;20041;-64
2023/04/22 10:33:46;;;;;;;8.55;7.20;;;18.80;99.90;;;;;;4997018;28;20037;-63
2023/04/22 10:36:18;;;;;;;9.27;7.57;;;18.80;99.90;;;;;;4997311;28;20060;-65
2023/04/22 10:38:53;;;;;;;;;;;18.90;99.90;;;;;;5015180;28;20377;-64
2023/04/22 10:41:25;;;;;;;9.98;7.38;;;19.20;99.90;;;;;;5014477;28;19960;-65
2023/04/22 10:43:57;;;;;;;9.43;7.35;;;19.40;99.90;;;;;;4997833;28;20073;-63
2023/04/22 10:46:29;;;;;;;;;;;19.50;99.90;;;;;;5015650;28;20084;-64
2023/04/22 10:48:55;;;;;;;9.30;8.00;;;19.40;99.90;;;;;;5014642;28;20310;-65
2023/04/22 10:51:40;;;;;;;10.27;8.07;;;19.50;99.90;;;;;;5015248;28;20050;-63
2023/04/22 10:54:06;;;;;;;14.13;8.45;;;19.60;99.90;;;;;;5007505;28;20491;-62
2023/04/22 10:56:32;;;;;;;10.38;8.10;;;19.70;99.90;;;;;;5015539;28;20025;-64
2023/04/22 10:58:57;;;;;;;8.73;7.15;;;19.80;99.90;;;;;;5012469;28;20041;-64
2023/04/22 11:01:26;;;;;;;9.82;8.23;;;19.90;99.90;;;;;;5011936;28;20056;-64
2023/04/22 11:03:52;;;;;;;9.55;7.82;;;19.90;99.90;;;;;;5015217;28;20053;-64
2023/04/22 11:06:21;;;;;;;8.00;7.10;;;19.90;99.90;;;;;;5010525;28;20037;-64
2023/04/22 11:09:06;;;;;;;9.45;7.82;;;20.00;99.90;;;;;;5009577;28;20419;-62
2023/04/22 11:11:31;;;;;;;10.02;7.72;;;20.10;99.90;;;;;;4993528;28;20045;-61
2023/04/22 11:13:57;;;;;;;9.38;8.18;;;20.20;99.90;;;;;;5012996;28;20557;-65
2023/04/22 11:16:23;;;;;;;12.18;8.27;;;20.10;99.90;;;;;;4993019;28;20078;-65
2023/04/22 11:18:49;;;;;;;9.23;7.75;;;20.20;99.90;;;;;;5010216;28;20069;-65
2023/04/22 11:21:15;;;;;;;9.57;7.97;;;20.20;99.90;;;;;;4992432;28;20065;-64
2023/04/22 11:23:52;;;;;;;8.95;7.30;;;20.40;99.90;;;;;;5011050;28;20042;-64
2023/04/22 11:26:18;;;;;;;9.10;8.20;;;20.50;99.90;;;;;;4975080;28;20090;-64
2023/04/22 11:28:46;;;;;;;10.57;7.60;;;20.50;99.90;;;;;;4992119;28;20088;-65
2023/04/22 11:31:13;;;;;;;10.48;8.52;;;20.60;99.90;;;;;;4995377;28;20045;-63
2023/04/22 11:33:40;;;;;;;8.98;8.00;;;20.50;99.90;;;;;;5017744;28;20045;-64
2023/04/22 11:36:10;;;;;;;8.65;7.72;;;20.50;99.90;;;;;;5009500;28;20496;-64
2023/04/22 11:38:35;;;;;;;9.95;7.53;;;20.60;99.90;;;;;;5010085;28;20121;-64
2023/04/22 11:41:03;;;;;;;8.98;7.88;;;20.70;99.90;;;;;;5009922;28;20599;-64
2023/04/22 11:43:29;;;;;;;9.63;7.57;;;20.80;99.90;;;;;;4989621;28;20128;-62
2023/04/22 11:45:56;;;;;;;9.05;7.25;;;20.80;99.90;;;;;;5001985;28;20038;-64
2023/04/22 11:48:21;;;;;;;9.48;7.85;;;20.70;99.90;;;;;;5010885;28;20160;-64
2023/04/22 11:50:47;;;;;;;9.23;7.65;;;20.50;99.90;;;;;;5006188;28;20113;-64
2023/04/22 11:53:17;;;;;;;11.27;8.23;;;20.40;99.90;;;;;;5009815;28;20056;-65
2023/04/22 11:55:44;;;;;;;11.65;8.20;;;20.20;99.90;;;;;;4982438;28;20045;-64
2023/04/22 11:58:14;;;;;;;8.95;7.78;;;20.00;99.90;;;;;;5001431;28;20045;-64
2023/04/22 12:00:42;;;;;;;7.55;6.50;;;19.80;99.90;;;;;;5005638;28;20034;-64
2023/04/22 12:03:19;;;;;;;10.77;7.50;;;19.80;99.90;;;;;;5010514;28;20121;-64
2023/04/22 12:05:56;;;;;;;8.70;7.38;;;19.80;99.90;;;;;;5011104;28;20444;-64
2023/04/22 12:08:24;;;;;;;9.27;7.80;;;19.90;99.90;;;;;;4998475;28;20041;-63
2023/04/22 12:10:54;;;;;;;10.35;7.60;;;19.80;99.90;;;;;;5012075;28;20044;-64
2023/04/22 12:13:26;;;;;;;10.90;7.72;;;19.70;99.90;;;;;;5012492;28;20049;-63
2023/04/22 12:16:17;;;;;;;10.27;7.20;;;19.70;99.90;;;;;;5010901;28;20046;-65
2023/04/22 12:18:54;;;;;;;8.77;7.00;;;19.70;99.90;;;;;;4999442;28;20523;-65
2023/04/22 12:21:27;;;;;;;11.20;7.53;;;19.80;99.90;;;;;;5009158;28;20135;-65
2023/04/22 12:24:06;;;;;;;11.23;7.50;;;19.70;99.90;;;;;;4989502;28;20041;-64
2023/04/22 12:26:32;;;;;;;12.43;7.70;;;19.60;99.90;;;;;;5004319;28;20279;-63
2023/04/22 12:28:59;;;;;;;8.23;6.45;;;19.50;99.90;;;;;;5014034;28;20208;-64
2023/04/22 12:31:25;;;;;;;9.23;7.63;;;19.60;99.90;;;;;;5010211;28;20559;-64
2023/04/22 12:33:52;;;;;;;8.32;7.43;;;19.70;99.90;;;;;;4991785;28;20380;-63
2023/04/22 12:36:21;;;;;;;8.50;7.40;;;19.80;99.90;;;;;;4999901;28;20054;-64